createdAt,value
2023-10-12T00:02:23.511Z,8.40
2023-10-12T00:05:00.782Z,8.40
2023-10-12T00:07:47.345Z,8.40
2023-10-12T00:10:15.563Z,8.40
2023-10-12T00:12:46.858Z,8.40
2023-10-12T00:15:39.562Z,8.40
2023-10-12T00:18:10.466Z,8.40
2023-10-12T00:20:39.403Z,8.30
2023-10-12T00:23:17.670Z,8.30
2023-10-12T00:25:50.741Z,8.20
2023-10-12T00:28:21.144Z,8.20
2023-10-12T00:31:06.977Z,8.20
2023-10-12T00:33:35.305Z,8.10
2023-10-12T00:36:06.195Z,8.10
2023-10-12T00:38:34.321Z,8.10
2023-10-12T00:41:06.293Z,8.10
2023-10-12T00:43:40.593Z,8.00
2023-10-12T00:46:23.412Z,7.90
2023-10-12T00:48:57.877Z,7.80
2023-10-12T00:51:27.718Z,7.80
2023-10-12T00:53:58.890Z,7.80
2023-10-12T00:56:30.122Z,7.70
2023-10-12T00:58:58.763Z,7.80
2023-10-12T01:01:27.309Z,7.70
2023-10-12T01:03:56.908Z,7.70
2023-10-12T01:06:27.987Z,7.80
2023-10-12T01:09:00.699Z,7.80
2023-10-12T01:11:31.690Z,7.80
2023-10-12T01:14:02.847Z,7.80
2023-10-12T01:16:45.714Z,7.80
2023-10-12T01:19:22.805Z,7.80
2023-10-12T01:21:56.946Z,7.70
2023-10-12T01:24:34.278Z,7.70
2023-10-12T01:27:02.892Z,7.60
2023-10-12T01:29:32.732Z,7.60
2023-10-12T01:32:09.761Z,7.60
2023-10-12T01:34:38.677Z,7.70
2023-10-12T01:37:22.281Z,7.70
2023-10-12T01:39:58.409Z,7.60
2023-10-12T01:42:44.846Z,7.60
2023-10-12T01:45:34.452Z,7.70
2023-10-12T01:48:11.606Z,7.60
2023-10-12T01:50:40.744Z,7.60
2023-10-12T01:53:27.979Z,7.50
2023-10-12T01:55:56.382Z,7.50
2023-10-12T01:58:29.459Z,7.50
2023-10-12T02:01:07.453Z,7.50
2023-10-12T02:03:44.512Z,7.50
2023-10-12T02:06:16.256Z,7.40
2023-10-12T02:08:48.157Z,7.40
2023-10-12T02:11:19.994Z,7.30
2023-10-12T02:13:52.729Z,7.20
2023-10-12T02:16:39.727Z,7.20
2023-10-12T02:19:09.622Z,7.30
2023-10-12T02:21:42.675Z,7.30
2023-10-12T02:24:10.879Z,7.30
2023-10-12T02:26:40.149Z,7.30
2023-10-12T02:29:11.796Z,7.20
2023-10-12T02:31:48.049Z,7.10
2023-10-12T02:34:19.501Z,7.10
2023-10-12T02:37:09.712Z,7.10
2023-10-12T02:39:42.905Z,7.10
2023-10-12T02:42:19.079Z,7.10
2023-10-12T02:44:51.449Z,7.10
2023-10-12T02:47:19.972Z,7.00
2023-10-12T02:49:48.527Z,7.10
2023-10-12T02:52:17.445Z,7.10
2023-10-12T02:54:52.110Z,7.10
2023-10-12T02:57:27.025Z,7.00
2023-10-12T02:59:59.000Z,7.00
2023-10-12T03:02:36.793Z,7.00
2023-10-12T03:05:08.182Z,7.00
2023-10-12T03:07:41.328Z,7.00
2023-10-12T03:10:16.768Z,7.00
2023-10-12T03:12:45.517Z,7.00
2023-10-12T03:15:14.229Z,7.00
2023-10-12T03:18:03.137Z,7.00
2023-10-12T03:20:31.240Z,7.00
2023-10-12T03:23:14.388Z,7.00
2023-10-12T03:25:48.000Z,7.00
2023-10-12T03:28:31.577Z,6.90
2023-10-12T03:31:17.160Z,6.90
2023-10-12T03:33:57.181Z,6.90
2023-10-12T03:36:27.326Z,7.00
2023-10-12T03:39:22.239Z,7.00
2023-10-12T03:41:53.191Z,7.00
2023-10-12T03:44:23.780Z,7.00
2023-10-12T03:47:03.445Z,7.00
2023-10-12T03:49:41.157Z,7.00
2023-10-12T03:52:15.485Z,6.90
2023-10-12T03:55:01.811Z,6.90
2023-10-12T03:57:32.128Z,6.80
2023-10-12T04:00:12.363Z,6.80
2023-10-12T04:02:52.115Z,6.80
2023-10-12T04:05:33.068Z,6.80
2023-10-12T04:08:07.154Z,6.70
2023-10-12T04:10:47.373Z,6.70
2023-10-12T04:13:28.241Z,6.70
2023-10-12T04:16:06.658Z,6.70
2023-10-12T04:19:04.570Z,6.60
2023-10-12T04:21:37.736Z,6.70
2023-10-12T04:24:18.351Z,6.60
2023-10-12T04:27:06.669Z,6.70
2023-10-12T04:29:35.060Z,6.70
2023-10-12T04:32:17.267Z,6.70
2023-10-12T04:34:52.621Z,6.70
2023-10-12T04:37:29.330Z,6.70
2023-10-12T04:40:11.237Z,6.70
2023-10-12T04:42:46.552Z,6.70
2023-10-12T04:45:20.633Z,6.80
2023-10-12T04:47:49.672Z,6.80
2023-10-12T04:50:45.050Z,6.70
2023-10-12T04:53:14.569Z,6.80
2023-10-12T04:55:49.174Z,6.80
2023-10-12T04:58:26.145Z,6.90
2023-10-12T05:00:57.378Z,6.90
2023-10-12T05:03:27.928Z,6.90
2023-10-12T05:06:06.345Z,6.90
2023-10-12T05:08:35.782Z,7.00
2023-10-12T05:11:08.012Z,7.10
2023-10-12T05:13:36.228Z,7.10
2023-10-12T05:16:08.501Z,7.10
2023-10-12T05:18:37.369Z,7.10
2023-10-12T05:21:10.890Z,7.10
2023-10-12T05:23:39.583Z,7.10
2023-10-12T05:26:07.750Z,7.10
2023-10-12T05:28:37.716Z,7.20
2023-10-12T05:31:08.842Z,7.30
2023-10-12T05:33:37.542Z,7.30
2023-10-12T05:36:13.215Z,7.30
2023-10-12T05:38:53.065Z,7.40
2023-10-12T05:41:33.933Z,7.50
2023-10-12T05:44:03.792Z,7.60
2023-10-12T05:46:35.806Z,7.70
2023-10-12T05:49:13.455Z,7.80
2023-10-12T05:51:47.261Z,7.80
2023-10-12T05:54:22.290Z,7.90
2023-10-12T05:56:51.329Z,8.10
2023-10-12T05:59:20.026Z,8.60
2023-10-12T06:01:48.197Z,9.00
2023-10-12T06:04:25.347Z,9.40
2023-10-12T06:06:54.625Z,9.70
2023-10-12T06:09:22.883Z,10.10
2023-10-12T06:11:53.113Z,10.40
2023-10-12T06:14:27.096Z,10.70
2023-10-12T06:17:01.668Z,11.10
2023-10-12T06:19:35.934Z,11.50
2023-10-12T06:22:40.121Z,11.80
2023-10-12T06:25:13.017Z,12.30
2023-10-12T06:27:41.467Z,12.80
2023-10-12T06:30:19.038Z,13.30
2023-10-12T06:32:50.564Z,13.60
2023-10-12T06:35:21.693Z,13.90
2023-10-12T06:37:58.934Z,14.10
2023-10-12T06:40:27.465Z,14.40
2023-10-12T06:43:15.075Z,14.60
2023-10-12T06:45:50.526Z,14.90
2023-10-12T06:48:32.248Z,15.20
2023-10-12T06:51:07.136Z,15.40
2023-10-12T06:53:36.789Z,15.60
2023-10-12T06:56:22.221Z,15.80
2023-10-12T06:59:10.725Z,16.10
2023-10-12T07:01:48.961Z,16.30
2023-10-12T07:04:17.998Z,16.60
2023-10-12T07:07:06.966Z,16.80
2023-10-12T07:09:42.528Z,17.00
2023-10-12T07:12:12.565Z,17.30
2023-10-12T07:15:01.276Z,17.50
2023-10-12T07:17:34.029Z,17.60
2023-10-12T07:20:02.437Z,17.70
2023-10-12T07:22:36.529Z,17.90
2023-10-12T07:25:06.650Z,18.20
2023-10-12T07:27:50.720Z,18.50
2023-10-12T07:30:40.294Z,18.70
2023-10-12T07:33:11.474Z,19.00
2023-10-12T07:35:44.036Z,19.10
2023-10-12T07:38:15.834Z,19.40
2023-10-12T07:41:11.261Z,19.60
2023-10-12T07:43:40.023Z,19.80
2023-10-12T07:46:26.938Z,20.20
2023-10-12T07:49:12.088Z,20.30
2023-10-12T07:52:00.757Z,20.80
2023-10-12T07:54:49.331Z,21.00
2023-10-12T07:57:19.017Z,21.20
2023-10-12T07:59:56.244Z,21.30
2023-10-12T08:02:47.457Z,21.60
2023-10-12T08:05:25.184Z,21.80
2023-10-12T08:08:03.039Z,22.10
2023-10-12T08:10:40.888Z,22.30
2023-10-12T08:13:17.876Z,22.60
2023-10-12T08:15:55.759Z,22.90
2023-10-12T08:18:48.578Z,23.10
2023-10-12T08:21:27.616Z,23.20
2023-10-12T08:24:06.452Z,23.30
2023-10-12T08:26:42.023Z,23.70
2023-10-12T08:29:10.867Z,24.00
2023-10-12T08:31:45.129Z,24.30
2023-10-12T08:34:36.035Z,24.40
2023-10-12T08:37:20.469Z,24.60
2023-10-12T08:39:52.640Z,25.00
2023-10-12T08:42:24.722Z,25.10
2023-10-12T08:44:56.941Z,25.50
2023-10-12T08:47:34.805Z,25.60
2023-10-12T08:50:10.103Z,26.00
2023-10-12T08:52:41.670Z,26.20
2023-10-12T08:55:13.410Z,26.50
2023-10-12T08:57:45.772Z,26.80
2023-10-12T09:00:34.300Z,27.10
2023-10-12T09:03:06.261Z,27.20
2023-10-12T09:05:35.339Z,27.50
2023-10-12T09:08:28.265Z,27.40
2023-10-12T09:10:58.367Z,27.50
2023-10-12T09:13:29.969Z,27.80
2023-10-12T09:15:59.675Z,27.90
2023-10-12T09:18:32.445Z,28.10
2023-10-12T09:21:04.028Z,28.40
2023-10-12T09:23:38.521Z,28.60
2023-10-12T09:26:10.244Z,28.70
2023-10-12T09:28:44.235Z,28.50
2023-10-12T09:31:44.248Z,28.90
2023-10-12T09:34:12.678Z,29.20
2023-10-12T09:36:55.334Z,29.70
2023-10-12T09:39:28.737Z,29.90
2023-10-12T09:42:11.523Z,30.00
2023-10-12T09:44:42.563Z,30.00
2023-10-12T09:47:17.303Z,30.10
2023-10-12T09:49:55.857Z,30.20
2023-10-12T09:52:45.073Z,30.50
2023-10-12T09:55:25.330Z,30.40
2023-10-12T09:57:53.976Z,30.50
2023-10-12T10:00:51.095Z,30.50
2023-10-12T10:03:20.211Z,30.60
2023-10-12T10:05:56.231Z,30.80
2023-10-12T10:08:28.432Z,30.90
2023-10-12T10:11:01.524Z,31.10
2023-10-12T10:13:50.743Z,31.20
2023-10-12T10:16:20.050Z,31.40
2023-10-12T10:19:12.196Z,31.60
2023-10-12T10:21:40.870Z,31.80
2023-10-12T10:24:23.041Z,31.70
2023-10-12T10:26:58.900Z,31.90
2023-10-12T10:29:46.696Z,32.00
2023-10-12T10:32:18.285Z,32.30
2023-10-12T10:34:47.157Z,32.50
2023-10-12T10:37:35.600Z,32.80
2023-10-12T10:40:09.588Z,33.10
2023-10-12T10:42:39.021Z,33.00
2023-10-12T10:45:14.006Z,33.10
2023-10-12T10:48:13.063Z,33.00
2023-10-12T10:50:51.368Z,33.20
2023-10-12T10:53:20.970Z,33.00
2023-10-12T10:55:55.846Z,32.90
2023-10-12T10:58:26.046Z,33.00
2023-10-12T11:08:34.556Z,33.00
2023-10-12T11:11:11.647Z,33.00
2023-10-12T11:13:40.631Z,32.90
2023-10-12T11:16:47.758Z,33.10
2023-10-12T11:19:20.996Z,33.00
2023-10-12T11:21:55.895Z,32.80
2023-10-12T11:24:25.790Z,32.90
2023-10-12T11:26:59.465Z,33.10
2023-10-12T11:29:28.042Z,33.40
2023-10-12T11:32:12.933Z,33.40
2023-10-12T11:34:55.389Z,32.90
2023-10-12T11:37:25.394Z,33.10
2023-10-12T11:39:54.329Z,33.20
2023-10-12T11:42:25.543Z,33.20
2023-10-12T11:44:54.018Z,33.00
2023-10-12T11:47:25.372Z,33.10
2023-10-12T11:50:00.670Z,33.10
2023-10-12T11:52:34.020Z,33.30
2023-10-12T11:55:02.246Z,33.50
2023-10-12T11:57:30.375Z,33.20
2023-10-12T12:00:00.268Z,33.20
2023-10-12T12:02:28.473Z,33.40
2023-10-12T12:05:08.294Z,33.50
2023-10-12T12:07:37.909Z,33.70
2023-10-12T12:10:09.232Z,33.50
2023-10-12T12:12:40.287Z,33.70
2023-10-12T12:15:08.612Z,33.30
2023-10-12T12:17:36.878Z,33.30
2023-10-12T12:20:09.265Z,33.50
2023-10-12T12:22:46.528Z,33.50
2023-10-12T12:25:22.639Z,33.10
2023-10-12T12:27:50.861Z,33.30
2023-10-12T12:30:55.223Z,33.60
2023-10-12T12:33:17.385Z,33.50
2023-10-12T12:35:49.716Z,33.40
2023-10-12T12:38:36.508Z,33.40
2023-10-12T12:41:07.410Z,33.40
2023-10-12T12:43:35.557Z,33.40
2023-10-12T12:46:06.603Z,33.30
2023-10-12T12:48:35.914Z,33.70
2023-10-12T12:51:04.996Z,33.70
2023-10-12T12:53:35.001Z,33.60
2023-10-12T12:56:03.932Z,33.50
2023-10-12T12:58:34.293Z,33.30
2023-10-12T13:01:02.347Z,33.40
2023-10-12T13:03:31.013Z,33.30
2023-10-12T13:05:59.166Z,33.30
2023-10-12T13:08:27.350Z,33.00
2023-10-12T13:10:58.809Z,32.90
2023-10-12T13:13:27.150Z,32.80
2023-10-12T13:15:56.114Z,32.70
2023-10-12T13:18:24.738Z,32.60
2023-10-12T13:20:53.194Z,32.50
2023-10-12T13:23:23.506Z,32.40
2023-10-12T13:25:52.520Z,32.30
2023-10-12T13:28:21.473Z,32.30
2023-10-12T13:30:49.921Z,32.20
2023-10-12T13:33:19.070Z,32.10
2023-10-12T13:35:50.361Z,32.00
2023-10-12T13:38:19.842Z,31.90
2023-10-12T13:40:50.744Z,31.90
2023-10-12T13:43:20.213Z,31.60
2023-10-12T13:45:50.378Z,31.60
2023-10-12T13:48:19.160Z,31.40
2023-10-12T13:50:51.869Z,31.20
2023-10-12T13:53:21.337Z,31.10
2023-10-12T13:55:51.956Z,31.00
2023-10-12T13:58:22.457Z,30.90
2023-10-12T14:00:52.959Z,30.60
2023-10-12T14:03:30.164Z,30.40
2023-10-12T14:06:01.266Z,30.20
2023-10-12T14:08:33.855Z,30.20
2023-10-12T14:11:05.492Z,30.00
2023-10-12T14:13:34.134Z,29.70
2023-10-12T14:16:02.447Z,29.70
2023-10-12T14:18:32.633Z,29.50
2023-10-12T14:21:00.857Z,29.20
2023-10-12T14:23:31.997Z,29.00
2023-10-12T14:26:00.374Z,28.90
2023-10-12T14:28:36.227Z,28.80
2023-10-12T14:31:07.838Z,28.50
2023-10-12T14:33:36.686Z,28.40
2023-10-12T14:36:07.660Z,28.10
2023-10-12T14:38:36.188Z,27.80
2023-10-12T14:41:07.557Z,27.50
2023-10-12T14:43:36.893Z,27.20
2023-10-12T14:46:06.895Z,27.00
2023-10-12T14:48:35.088Z,26.80
2023-10-12T14:51:24.180Z,26.50
2023-10-12T14:53:52.262Z,26.20
2023-10-12T14:56:24.951Z,25.90
2023-10-12T14:58:53.108Z,25.50
2023-10-12T15:01:23.824Z,25.20
2023-10-12T15:03:52.207Z,25.00
2023-10-12T15:06:21.960Z,24.60
2023-10-12T15:08:50.475Z,24.50
2023-10-12T15:11:19.197Z,24.30
2023-10-12T15:13:50.316Z,24.10
2023-10-12T15:16:18.436Z,24.00
2023-10-12T15:18:46.655Z,23.80
2023-10-12T15:21:30.146Z,23.60
2023-10-12T15:23:59.642Z,23.40
2023-10-12T15:26:28.220Z,23.20
2023-10-12T15:28:56.849Z,23.00
2023-10-12T15:31:28.895Z,22.80
2023-10-12T15:33:57.973Z,22.70
2023-10-12T15:36:27.194Z,22.50
2023-10-12T15:38:55.471Z,22.30
2023-10-12T15:41:23.914Z,22.00
2023-10-12T15:43:53.651Z,21.90
2023-10-12T15:46:21.899Z,21.60
2023-10-12T15:48:49.990Z,21.50
2023-10-12T15:51:22.155Z,21.40
2023-10-12T15:53:51.258Z,21.30
2023-10-12T15:56:19.875Z,21.10
2023-10-12T15:58:51.515Z,21.00
2023-10-12T16:01:22.561Z,20.90
2023-10-12T16:03:51.443Z,20.70
2023-10-12T16:06:19.748Z,20.50
2023-10-12T16:08:47.840Z,20.20
2023-10-12T16:11:16.917Z,20.20
2023-10-12T16:13:47.369Z,20.00
2023-10-12T16:16:16.011Z,19.90
2023-10-12T16:18:44.865Z,19.80
2023-10-12T16:21:14.285Z,19.50
2023-10-12T16:23:42.452Z,19.50
2023-10-12T16:26:11.313Z,19.50
2023-10-12T16:28:43.209Z,19.40
2023-10-12T16:31:11.887Z,19.30
2023-10-12T16:33:41.107Z,19.30
2023-10-12T16:36:10.343Z,19.10
2023-10-12T16:38:39.581Z,19.00
2023-10-12T16:41:10.614Z,18.80
2023-10-12T16:43:39.346Z,18.70
2023-10-12T16:46:08.758Z,18.60
2023-10-12T16:48:37.048Z,18.60
2023-10-12T16:51:09.210Z,18.50
2023-10-12T16:53:38.690Z,18.30
2023-10-12T16:56:11.776Z,18.10
2023-10-12T16:58:40.944Z,18.00
2023-10-12T17:01:13.849Z,18.10
2023-10-12T17:03:42.776Z,17.90
2023-10-12T17:06:10.992Z,17.80
2023-10-12T17:08:42.969Z,17.70
2023-10-12T17:11:11.270Z,17.60
2023-10-12T17:13:39.392Z,17.50
2023-10-12T17:16:07.552Z,17.50
2023-10-12T17:18:36.693Z,17.50
2023-10-12T17:21:04.848Z,17.40
2023-10-12T17:23:33.433Z,17.30
2023-10-12T17:26:02.374Z,17.30
2023-10-12T17:28:32.592Z,17.10
2023-10-12T17:31:07.668Z,17.00
2023-10-12T17:33:39.955Z,17.00
2023-10-12T17:36:16.336Z,17.00
2023-10-12T17:38:51.161Z,16.90
2023-10-12T17:41:21.634Z,16.70
2023-10-12T17:43:53.960Z,16.70
2023-10-12T17:46:25.356Z,16.70
2023-10-12T17:48:55.279Z,16.60
2023-10-12T17:51:24.015Z,16.50
2023-10-12T17:53:52.232Z,16.30
2023-10-12T17:56:21.222Z,16.20
2023-10-12T17:58:49.373Z,16.10
2023-10-12T18:01:17.655Z,16.10
2023-10-12T18:03:46.268Z,16.10
2023-10-12T18:06:14.524Z,16.10
2023-10-12T18:08:43.010Z,16.00
2023-10-12T18:11:17.722Z,15.80
2023-10-12T18:13:46.039Z,15.80
2023-10-12T18:16:16.238Z,15.70
2023-10-12T18:18:44.823Z,15.60
2023-10-12T18:21:13.120Z,15.50
2023-10-12T18:23:41.332Z,15.60
2023-10-12T18:26:10.061Z,15.40
2023-10-12T18:28:39.123Z,15.40
2023-10-12T18:31:11.123Z,15.30
2023-10-12T18:33:39.929Z,15.10
2023-10-12T18:36:08.718Z,15.10
2023-10-12T18:38:37.718Z,15.10
2023-10-12T18:41:07.023Z,14.90
2023-10-12T18:43:35.597Z,14.80
2023-10-12T18:46:05.155Z,14.70
2023-10-12T18:48:33.634Z,14.50
2023-10-12T18:51:06.671Z,14.50
2023-10-12T18:53:35.075Z,14.50
2023-10-12T18:56:04.391Z,14.50
2023-10-12T18:58:36.118Z,14.40
2023-10-12T19:01:10.613Z,14.40
2023-10-12T19:03:38.990Z,14.50
2023-10-12T19:06:08.736Z,14.50
2023-10-12T19:08:36.894Z,14.50
2023-10-12T19:11:21.236Z,14.50
2023-10-12T19:13:52.189Z,14.50
2023-10-12T19:16:27.904Z,14.50
2023-10-12T19:18:56.644Z,14.40
2023-10-12T19:21:24.846Z,14.30
2023-10-12T19:23:52.985Z,14.30
2023-10-12T19:26:21.265Z,14.20
2023-10-12T19:28:49.348Z,14.20
2023-10-12T19:31:19.279Z,14.10
2023-10-12T19:33:48.248Z,13.90
2023-10-12T19:36:16.505Z,13.90
2023-10-12T19:38:44.940Z,13.80
2023-10-12T19:41:13.001Z,13.80
2023-10-12T19:43:41.478Z,13.80
2023-10-12T19:46:33.696Z,13.70
2023-10-12T19:49:19.910Z,13.70
2023-10-12T19:51:48.207Z,13.60
2023-10-12T19:54:18.282Z,13.60
2023-10-12T19:56:46.414Z,13.60
2023-10-12T19:59:18.023Z,13.60
2023-10-12T20:01:47.510Z,13.50
2023-10-12T20:04:23.105Z,13.40
2023-10-12T20:06:52.157Z,13.30
2023-10-12T20:09:28.654Z,13.30
2023-10-12T20:11:57.180Z,13.30
2023-10-12T20:14:25.240Z,13.20
2023-10-12T20:16:57.075Z,13.10
2023-10-12T20:19:26.759Z,13.10
2023-10-12T20:21:57.693Z,13.10
2023-10-12T20:24:25.867Z,12.90
2023-10-12T20:26:53.932Z,13.10
2023-10-12T20:29:23.209Z,13.00
2023-10-12T20:31:52.026Z,12.90
2023-10-12T20:34:21.416Z,12.80
2023-10-12T20:36:49.463Z,12.70
2023-10-12T20:39:17.846Z,12.80
2023-10-12T20:41:46.283Z,12.70
2023-10-12T20:44:14.652Z,12.70
2023-10-12T20:46:43.020Z,12.70
2023-10-12T20:49:12.189Z,12.50
2023-10-12T20:51:44.068Z,12.40
2023-10-12T20:54:15.513Z,12.30
2023-10-12T20:56:43.619Z,12.20
2023-10-12T20:59:28.184Z,12.30
2023-10-12T21:02:03.123Z,12.20
2023-10-12T21:04:34.723Z,12.20
2023-10-12T21:07:05.685Z,12.10
2023-10-12T21:09:34.517Z,12.10
2023-10-12T21:12:15.889Z,12.00
2023-10-12T21:14:44.342Z,12.00
2023-10-12T21:17:21.307Z,12.10
2023-10-12T21:19:55.899Z,12.10
2023-10-12T21:22:29.246Z,12.00
2023-10-12T21:24:57.935Z,12.00
2023-10-12T21:27:37.855Z,12.00
2023-10-12T21:30:07.097Z,12.00
2023-10-12T21:32:35.482Z,12.00
2023-10-12T21:35:09.120Z,11.90
2023-10-12T21:37:40.400Z,11.90
2023-10-12T21:40:31.763Z,11.90
2023-10-12T21:43:08.787Z,11.80
2023-10-12T21:45:40.302Z,11.80
2023-10-12T21:48:14.727Z,11.90
2023-10-12T21:50:43.491Z,11.80
2023-10-12T21:53:11.655Z,11.70
2023-10-12T21:55:40.462Z,11.60
2023-10-12T21:58:08.805Z,11.60
2023-10-12T22:00:39.619Z,11.60
2023-10-12T22:03:07.977Z,11.60
2023-10-12T22:05:36.403Z,11.60
2023-10-12T22:08:04.511Z,11.50
2023-10-12T22:10:33.265Z,11.40
2023-10-12T22:13:10.100Z,11.40
2023-10-12T22:15:54.255Z,11.40
2023-10-12T22:18:23.159Z,11.30
2023-10-12T22:21:00.115Z,11.30
2023-10-12T22:23:28.232Z,11.30
2023-10-12T22:25:56.341Z,11.30
2023-10-12T22:28:24.428Z,11.30
2023-10-12T22:30:54.592Z,11.20
2023-10-12T22:33:22.788Z,11.20
2023-10-12T22:36:01.118Z,11.10
2023-10-12T22:38:29.992Z,11.00
2023-10-12T22:41:01.912Z,11.10
2023-10-12T22:43:30.338Z,11.00
2023-10-12T22:45:58.909Z,11.00
2023-10-12T22:48:26.992Z,10.90
2023-10-12T22:50:55.475Z,10.80
2023-10-12T22:53:23.428Z,10.80
2023-10-12T22:55:51.478Z,10.80
2023-10-12T22:58:19.594Z,10.80
2023-10-12T23:00:47.741Z,10.80
2023-10-12T23:03:15.975Z,10.80
2023-10-12T23:05:46.290Z,10.80
2023-10-12T23:08:16.509Z,10.80
2023-10-12T23:10:48.186Z,10.70
2023-10-12T23:13:16.555Z,10.60
2023-10-12T23:15:45.502Z,10.60
2023-10-12T23:18:13.668Z,10.40
2023-10-12T23:20:46.245Z,10.40
2023-10-12T23:23:14.586Z,10.30
2023-10-12T23:25:46.886Z,10.30
2023-10-12T23:28:18.971Z,10.30
2023-10-12T23:30:54.600Z,10.40
2023-10-12T23:33:35.701Z,10.40
2023-10-12T23:36:06.047Z,10.40
2023-10-12T23:38:37.262Z,10.30
2023-10-12T23:41:14.804Z,10.30
2023-10-12T23:44:03.106Z,10.30
2023-10-12T23:46:45.532Z,10.30
2023-10-12T23:49:13.785Z,10.20
2023-10-12T23:51:42.266Z,10.30
2023-10-12T23:54:19.817Z,10.20
2023-10-12T23:57:08.940Z,10.20
2023-10-12T23:59:37.221Z,10.20
